x

Central Aleutians 230nm Sw Dutch Harbor (46072) Wave Buoy

12:50 - Thu 8th Dec 2016 All times are UTC.

  • Sig Wave height 4.9ft
  • Swell Direction
  • Peak Period 10s
  • Average Period 8s
  • Wind
    7mph, 9mph gusts
  • Sea Temp 44°f
  • Ar Temp 40°f
  • Sea Pressure 1031.7mb

More Historic Weather Station data

Upgrade to MSW Pro to gain access to the past 30 days of data for over 8000 Wavebouys and Weather Stations around the globe.

Join Pro

Comparision Forecast

View Surf forecast
   
Qui 12/08 12:50 5ft 10s 8s 7 9 mph 1031.7mb 44f 40f
Qua 12/07 11:50 4.5ft 11s 8s 7 9 mph 1032.3mb 44f 40f
10:50 5ft 10s 8s 4 7 mph 1032.5mb 44f 40f
9:50 4.5ft 10s 8s 7 11 mph 1033mb 44f 40f
8:50 4.5ft 10s 8s 9 11 mph 1033mb 44f 40f
7:50 4.5ft 9s 8s 4 7 mph 1033.5mb 44f 40f
6:50 5ft 10s 8s 4 7 mph 1033.5mb 44f 41f
4:50 6ft 9s 8s 2 4 mph 1033.4mb 44f 41f
3:50 5.5ft 10s 8s 7 9 mph 1033.8mb 44f 41f
2:50 6ft 11s 8s 4 7 mph 1033.8mb 44f 41f
1:50 5.5ft 11s 8s 4 7 mph 1034.5mb 44f 41f
12:50 5.5ft 10s 7s 9 11 mph 1034.9mb 44f 42f
11:50 6ft 10s  -  9 11 mph 1035.2mb 44f 42f
10:50 6.5ft 10s 8s 7 9 mph 1035.3mb 44f 42f
9:50 6ft 11s 8s 9 11 mph 1035.1mb 45f 42f
8:50 5.5ft 11s 8s 9 11 mph 1035.2mb 45f 42f
7:50 6ft 11s 8s 11 13 mph 1035.2mb 45f 42f
6:50 6ft 11s 8s 9 11 mph 1035.2mb 45f 42f
5:50 6ft 11s 8s 11 16 mph 1035.3mb 45f 42f
4:50 6.5ft 11s 8s 11 13 mph 1035.1mb 45f 42f
3:50 6.5ft 12s 8s 11 13 mph 1034.9mb 44f 42f
1:50 8ft 10s 8s 11 13 mph 1034.8mb 44f 42f
12:50 8ft 11s 8s 11 16 mph 1034.8mb 45f 42f
Ter 12/06 11:50 8ft 12s 8s 13 16 mph 1035mb 45f 42f
10:50 8ft 11s 8s 9 13 mph 1035.3mb 45f 42f
9:50 7.5ft 11s 8s 9 11 mph 1035.6mb 44f 42f
8:50 7.5ft 11s 8s 13 16 mph 1035.4mb 44f 43f
7:50 8.5ft 12s 9s 13 16 mph 1035.3mb 44f 43f
6:50 8.5ft 12s 9s 11 13 mph 1034.8mb 44f 43f
5:50 8ft 12s 9s 13 18 mph 1034.5mb 44f 43f
4:50 8ft 12s 8s 13 16 mph 1034.2mb 45f 43f
3:50 10ft 13s 8s 11 13 mph 1034.2mb 45f 42f
2:50 10ft 11s 8s 11 13 mph 1034.2mb 45f 42f
1:50 9ft 11s 8s 13 18 mph 1034.4mb 45f 43f
12:50 10.5ft 13s 8s 13 18 mph 1034.3mb 44f 43f
11:50 10ft 9s 8s 13 18 mph 1034mb 44f 43f
10:50 10ft 9s 8s 13 18 mph 1033.9mb 45f 42f
9:50 11.5ft 11s 9s 16 20 mph 1033.6mb 45f 43f
8:50 12ft 13s 9s 13 18 mph 1033.2mb 45f 43f
7:50 11ft 14s 9s 16 20 mph 1033mb 45f 43f
6:50 12ft 14s 9s 18 22 mph 1032.7mb 45f 43f
5:50 13.5ft 14s 9s 18 22 mph 1032.2mb 45f 43f
4:50 13ft 13s 9s 18 25 mph 1031.4mb 45f 43f
3:50 12ft 14s 9s 18 22 mph 1031mb 44f 43f
2:50 12ft 13s 9s 18 22 mph 1030.4mb 44f 42f
1:50 14.5ft 14s 10s 18 25 mph 1029.7mb 44f 42f
12:50 12ft 14s 8s 16 20 mph 1029.2mb 45f 42f
Seg 12/05 11:50 13ft 14s 9s 13 18 mph 1028.9mb 44f 43f
10:50 13.5ft 14s 9s 18 22 mph 1028.8mb 44f 43f
9:50 12ft 14s 8s 18 25 mph 1028.8mb 44f 43f
8:50 12ft 15s 8s 18 22 mph 1028.5mb 44f 42f
7:50 12ft 11s 8s 18 22 mph 1027.8mb 44f 42f
6:50 13.5ft 15s 9s 20 25 mph 1027.1mb 44f 42f
5:50 13ft 15s 9s 20 25 mph 1026.2mb 44f 42f
4:50 14ft 15s 9s 18 20 mph 1025.5mb 44f 41f
3:50 16.5ft 14s 9s 20 25 mph 1024.9mb 43f 42f
2:50 16ft 15s 9s 25 29 mph 1024.1mb 43f 41f
1:50 17.5ft 15s 10s 22 29 mph 1023.7mb 43f 42f
12:50 15ft 14s 9s 16 22 mph 1023.3mb 43f 42f
11:50 15ft 15s 9s 16 20 mph 1022.8mb 44f 42f
10:50 14ft 15s 9s 22 27 mph 1022.1mb 44f 42f
9:50 13ft 15s 9s 18 22 mph 1021.6mb 44f 41f
8:50 13.5ft 13s 9s 18 22 mph 1020.8mb 44f 42f
7:50 13ft 11s 9s 25 31 mph 1019.6mb 44f 42f
6:50 14.5ft 12s 9s 22 27 mph 1018.7mb 45f 42f
5:50 14.5ft 11s 9s 22 29 mph 1018.1mb 45f 41f
4:50 14.5ft 12s 9s 20 29 mph 1017.5mb 45f 41f
3:50 14ft 12s 9s 20 25 mph 1017.1mb 44f 41f
2:50 16ft 12s 9s 20 25 mph 1016.5mb 44f 41f
1:50 16ft 12s 9s 20 27 mph 1016.1mb 44f 41f
12:50 15.5ft 12s 9s 18 22 mph 1016mb 44f 40f
Dom 12/04 11:50 16ft 12s 9s 22 29 mph 1015.7mb 44f 42f
10:50 17ft 12s 9s 20 27 mph 1015.9mb 44f 42f
9:50 17.5ft 14s 9s 18 27 mph 1016mb 44f 41f
8:50 16.5ft 13s 9s 20 27 mph 1015.7mb 44f 41f
7:50 17.5ft 12s 9s 22 29 mph 1015.4mb 44f 40f
6:50 16.5ft 13s 9s 22 34 mph 1014.6mb 44f 41f
4:50 16ft 11s 9s 22 27 mph 1013mb 44f 42f
3:50 18.5ft 12s 9s 20 27 mph 1012.8mb 44f 42f
2:50 19ft 14s 9s 22 29 mph 1012.5mb 44f 41f
1:50 22ft 13s 9s 29 38 mph 1011.8mb 44f 43f
12:50 23.5ft 12s 9s 38 47 mph 1011.5mb 44f 42f
11:50 25.5ft 13s 9s 40 51 mph 1011.8mb 44f 42f
10:50 22ft 12s 9s 40 54 mph 1012.6mb 44f 42f
9:50 26ft 12s 10s 38 47 mph 1013.5mb 44f 41f
8:50 24ft 13s 10s 38 49 mph 1014.4mb 44f 41f
7:50 26ft 14s 10s 38 49 mph 1014.9mb 44f 42f
6:50 21.5ft 12s 10s 38 49 mph 1015.7mb 44f 42f
5:50 20ft 11s 9s 38 49 mph 1016.7mb 44f 41f
4:50 16.5ft 11s 8s 34 43 mph 1017.9mb 44f 41f
3:50 17ft 10s 8s 36 45 mph 1018.4mb 44f 41f
2:50 16.5ft 10s 8s 36 47 mph 1019.1mb 44f 41f